createdAt,value
2022-08-17T00:00:51.709Z,20.30
2022-08-17T00:03:23.408Z,20.25
2022-08-17T00:05:54.921Z,20.46
2022-08-17T00:08:23.438Z,20.26
2022-08-17T00:10:50.692Z,20.31
2022-08-17T00:13:19.509Z,20.22
2022-08-17T00:15:46.426Z,20.15
2022-08-17T00:19:06.395Z,20.26
2022-08-17T00:21:00.594Z,20.23
2022-08-17T00:23:27.774Z,20.20
2022-08-17T00:25:55.089Z,19.92
2022-08-17T00:28:21.908Z,19.87
2022-08-17T00:30:52.739Z,20.10
2022-08-17T00:33:25.556Z,20.21
2022-08-17T00:35:53.028Z,20.26
2022-08-17T00:38:20.275Z,20.27
2022-08-17T00:40:48.634Z,20.22
2022-08-17T00:43:36.183Z,20.28
2022-08-17T00:46:23.181Z,20.33
2022-08-17T00:48:50.210Z,20.26
2022-08-17T00:51:19.539Z,20.10
2022-08-17T00:53:50.077Z,19.83
2022-08-17T00:56:27.440Z,19.58
2022-08-17T00:58:54.590Z,19.36
2022-08-17T01:01:22.144Z,19.75
2022-08-17T01:03:49.188Z,19.69
2022-08-17T01:06:15.739Z,19.71
2022-08-17T01:08:43.102Z,19.58
2022-08-17T01:11:09.567Z,19.76
2022-08-17T01:13:41.469Z,19.87
2022-08-17T01:16:15.867Z,19.60
2022-08-17T01:18:43.214Z,19.48
2022-08-17T01:21:19.335Z,19.54
2022-08-17T01:23:45.885Z,19.74
2022-08-17T01:26:12.451Z,19.65
2022-08-17T01:28:55.004Z,19.63
2022-08-17T01:31:23.211Z,19.65
2022-08-17T01:33:49.883Z,19.51
2022-08-17T01:36:16.602Z,19.65
2022-08-17T01:38:43.587Z,19.40
2022-08-17T01:41:12.372Z,19.19
2022-08-17T01:43:50.991Z,19.42
2022-08-17T01:46:21.790Z,19.32
2022-08-17T01:48:48.643Z,19.25
2022-08-17T01:51:15.951Z,19.39
2022-08-17T01:53:45.983Z,19.38
2022-08-17T01:56:14.193Z,19.33
2022-08-17T01:58:41.444Z,19.19
2022-08-17T02:01:09.848Z,19.21
2022-08-17T02:03:37.754Z,18.91
2022-08-17T02:06:05.202Z,19.02
2022-08-17T02:08:39.010Z,18.77
2022-08-17T02:11:22.437Z,19.12
2022-08-17T02:13:57.896Z,19.18
2022-08-17T02:16:37.299Z,19.12
2022-08-17T02:19:08.593Z,19.09
2022-08-17T02:21:36.406Z,18.91
2022-08-17T02:24:03.625Z,18.55
2022-08-17T02:26:30.186Z,18.44
2022-08-17T02:28:56.884Z,18.16
2022-08-17T02:31:23.498Z,18.42
2022-08-17T02:34:00.260Z,18.61
2022-08-17T02:36:31.901Z,18.73
2022-08-17T02:38:58.650Z,18.68
2022-08-17T02:41:25.426Z,18.86
2022-08-17T02:43:53.140Z,18.72
2022-08-17T02:46:19.707Z,18.51
2022-08-17T02:48:46.352Z,18.72
2022-08-17T02:51:12.869Z,18.63
2022-08-17T02:53:39.377Z,18.87
2022-08-17T02:56:06.156Z,18.78
2022-08-17T02:58:35.442Z,18.67
2022-08-17T03:01:03.530Z,18.58
2022-08-17T03:03:30.095Z,18.57
2022-08-17T03:05:56.642Z,18.37
2022-08-17T03:08:23.423Z,18.21
2022-08-17T03:10:50.502Z,18.32
2022-08-17T03:13:17.570Z,18.37
2022-08-17T03:15:47.566Z,18.42
2022-08-17T03:18:21.966Z,18.44
2022-08-17T03:20:52.463Z,18.38
2022-08-17T03:23:19.085Z,18.46
2022-08-17T03:25:53.128Z,18.32
2022-08-17T03:28:20.259Z,18.03
2022-08-17T03:30:46.916Z,18.18
2022-08-17T03:33:13.729Z,18.20
2022-08-17T03:35:40.831Z,18.18
2022-08-17T03:38:08.227Z,18.05
2022-08-17T03:40:57.632Z,18.13
2022-08-17T03:43:22.162Z,18.24
2022-08-17T03:46:11.007Z,18.16
2022-08-17T03:49:12.537Z,18.35
2022-08-17T03:51:57.771Z,18.14
2022-08-17T03:54:42.731Z,18.05
2022-08-17T03:57:10.427Z,17.92
2022-08-17T03:59:37.522Z,17.81
2022-08-17T04:02:09.459Z,17.88
2022-08-17T04:04:36.802Z,17.96
2022-08-17T04:07:03.469Z,18.05
2022-08-17T04:09:29.961Z,18.05
2022-08-17T04:11:57.279Z,18.08
2022-08-17T04:14:31.142Z,18.03
2022-08-17T04:16:57.670Z,17.86
2022-08-17T04:19:24.148Z,17.91
2022-08-17T04:21:50.655Z,17.78
2022-08-17T04:24:17.161Z,17.95
2022-08-17T04:26:53.668Z,18.08
2022-08-17T04:29:21.360Z,17.98
2022-08-17T04:31:48.044Z,18.07
2022-08-17T04:34:14.614Z,18.05
2022-08-17T04:36:50.329Z,18.13
2022-08-17T04:39:17.146Z,18.30
2022-08-17T04:42:02.352Z,18.47
2022-08-17T04:44:37.579Z,18.44
2022-08-17T04:47:04.610Z,18.70
2022-08-17T04:49:32.518Z,18.90
2022-08-17T04:52:01.259Z,19.02
2022-08-17T04:54:31.006Z,19.11
2022-08-17T04:56:57.489Z,19.11
2022-08-17T04:59:24.037Z,19.20
2022-08-17T05:01:51.976Z,18.88
2022-08-17T05:04:19.967Z,19.11
2022-08-17T05:06:59.523Z,19.45
2022-08-17T05:09:26.875Z,19.56
2022-08-17T05:11:53.423Z,19.58
2022-08-17T05:14:33.062Z,19.87
2022-08-17T05:17:01.138Z,19.87
2022-08-17T05:19:28.383Z,19.95
2022-08-17T05:21:54.963Z,20.10
2022-08-17T05:24:42.727Z,20.09
2022-08-17T05:27:08.017Z,20.29
2022-08-17T05:29:35.791Z,20.38
2022-08-17T05:32:38.642Z,20.63
2022-08-17T05:35:01.675Z,20.92
2022-08-17T05:37:28.210Z,21.22
2022-08-17T05:39:54.836Z,21.19
2022-08-17T05:42:21.603Z,21.43
2022-08-17T05:44:48.186Z,21.44
2022-08-17T05:47:14.719Z,21.94
2022-08-17T05:49:42.377Z,21.56
2022-08-17T05:52:26.369Z,21.67
2022-08-17T05:55:05.288Z,21.64
2022-08-17T05:57:34.927Z,22.14
2022-08-17T06:00:01.408Z,22.35
2022-08-17T06:02:34.002Z,22.62
2022-08-17T06:05:12.843Z,23.01
2022-08-17T06:07:39.290Z,23.12
2022-08-17T06:10:24.791Z,23.47
2022-08-17T06:12:54.222Z,23.50
2022-08-17T06:15:31.019Z,23.53
2022-08-17T06:17:59.962Z,23.41
2022-08-17T06:20:30.333Z,23.47
2022-08-17T06:23:02.910Z,22.95
2022-08-17T06:25:39.513Z,24.01
2022-08-17T06:28:09.416Z,24.64
2022-08-17T06:30:59.657Z,24.30
2022-08-17T06:33:33.751Z,24.83
2022-08-17T06:36:24.956Z,25.50
2022-08-17T06:39:04.352Z,25.56
2022-08-17T06:41:42.959Z,25.24
2022-08-17T06:44:43.668Z,25.14
2022-08-17T06:47:08.962Z,25.05
2022-08-17T06:49:40.414Z,25.61
2022-08-17T06:52:12.405Z,25.30
2022-08-17T06:55:02.321Z,26.18
2022-08-17T06:57:31.169Z,27.24
2022-08-17T07:00:01.692Z,26.43
2022-08-17T07:02:51.190Z,26.79
2022-08-17T07:05:21.048Z,26.50
2022-08-17T07:08:04.217Z,26.14
2022-08-17T07:10:39.154Z,26.58
2022-08-17T07:13:29.457Z,27.66
2022-08-17T07:16:15.399Z,27.25
2022-08-17T07:18:43.863Z,27.48
2022-08-17T07:21:25.859Z,27.57
2022-08-17T07:24:02.994Z,27.74
2022-08-17T07:26:29.694Z,28.43
2022-08-17T07:28:56.260Z,28.16
2022-08-17T07:31:24.969Z,28.28
2022-08-17T07:33:59.712Z,29.06
2022-08-17T07:36:30.018Z,29.30
2022-08-17T07:38:57.968Z,29.10
2022-08-17T07:41:24.488Z,29.83
2022-08-17T07:43:52.752Z,30.77
2022-08-17T07:46:42.771Z,30.10
2022-08-17T07:49:09.238Z,30.10
2022-08-17T07:51:39.037Z,30.12
2022-08-17T07:54:21.522Z,30.96
2022-08-17T07:56:52.629Z,30.98
2022-08-17T07:59:23.715Z,31.38
2022-08-17T08:02:14.888Z,31.62
2022-08-17T08:05:02.023Z,31.66
2022-08-17T08:07:31.700Z,30.78
2022-08-17T08:10:07.575Z,31.39
2022-08-17T08:12:39.642Z,32.12
2022-08-17T08:15:17.650Z,30.91
2022-08-17T08:17:47.005Z,31.17
2022-08-17T08:20:51.029Z,31.26
2022-08-17T08:23:00.599Z,30.94
2022-08-17T08:25:39.814Z,31.69
2022-08-17T08:28:12.105Z,31.09
2022-08-17T08:30:43.778Z,30.77
2022-08-17T08:33:21.411Z,30.18
2022-08-17T08:35:53.844Z,32.44
2022-08-17T08:38:23.475Z,31.97
2022-08-17T08:41:10.249Z,31.99
2022-08-17T08:43:55.616Z,33.04
2022-08-17T08:46:36.491Z,32.74
2022-08-17T08:49:17.030Z,32.67
2022-08-17T08:51:43.899Z,33.27
2022-08-17T08:54:16.568Z,32.80
2022-08-17T08:57:21.563Z,32.45
2022-08-17T08:59:57.841Z,32.67
2022-08-17T09:02:41.129Z,33.76
2022-08-17T09:05:26.471Z,33.95
2022-08-17T09:08:11.580Z,32.68
2022-08-17T09:10:57.673Z,32.39
2022-08-17T09:13:24.153Z,33.05
2022-08-17T09:15:57.330Z,32.74
2022-08-17T09:19:03.527Z,32.59
2022-08-17T09:21:19.250Z,33.10
2022-08-17T09:23:59.404Z,33.03
2022-08-17T09:26:30.908Z,34.19
2022-08-17T09:29:01.505Z,33.76
2022-08-17T09:31:49.539Z,34.73
2022-08-17T09:34:18.258Z,33.89
2022-08-17T09:37:03.445Z,33.41
2022-08-17T09:39:35.605Z,33.88
2022-08-17T09:42:05.227Z,34.81
2022-08-17T09:44:50.276Z,34.04
2022-08-17T09:47:38.007Z,34.06
2022-08-17T09:50:15.343Z,34.93
2022-08-17T09:52:42.135Z,34.20
2022-08-17T09:55:08.659Z,33.68
2022-08-17T09:57:58.839Z,34.35
2022-08-17T10:00:33.632Z,33.87
2022-08-17T10:03:09.715Z,34.89
2022-08-17T10:06:06.869Z,35.34
2022-08-17T10:08:36.635Z,35.59
2022-08-17T10:11:15.304Z,34.44
2022-08-17T10:13:52.824Z,35.21
2022-08-17T10:16:26.128Z,34.90
2022-08-17T10:18:52.675Z,36.39
2022-08-17T10:21:38.146Z,36.83
2022-08-17T10:25:22.962Z,36.73
2022-08-17T10:27:33.983Z,36.48
2022-08-17T10:30:04.596Z,37.17
2022-08-17T10:32:39.636Z,36.37
2022-08-17T10:35:16.071Z,36.95
2022-08-17T10:37:48.452Z,37.69
2022-08-17T10:40:15.035Z,37.61
2022-08-17T10:42:54.937Z,37.39
2022-08-17T10:45:32.192Z,37.37
2022-08-17T10:48:21.734Z,37.78
2022-08-17T10:51:00.097Z,36.93
2022-08-17T10:53:32.731Z,37.22
2022-08-17T10:56:14.601Z,37.08
2022-08-17T10:59:00.438Z,37.06
2022-08-17T11:01:33.805Z,36.95
2022-08-17T11:04:09.193Z,37.95
2022-08-17T11:06:36.089Z,37.57
2022-08-17T11:09:16.363Z,36.79
2022-08-17T11:11:43.419Z,37.29
2022-08-17T11:14:20.537Z,37.46
2022-08-17T11:17:01.381Z,37.90
2022-08-17T11:19:36.958Z,38.70
2022-08-17T11:22:35.788Z,38.13
2022-08-17T11:25:13.809Z,38.37
2022-08-17T11:27:41.144Z,37.31
2022-08-17T11:30:13.673Z,37.75
2022-08-17T11:32:47.092Z,37.68
2022-08-17T11:35:26.879Z,38.67
2022-08-17T11:38:00.772Z,38.24
2022-08-17T11:40:33.870Z,37.71
2022-08-17T11:43:10.075Z,37.05
2022-08-17T11:45:45.925Z,38.46
2022-08-17T11:48:44.840Z,38.53
2022-08-17T11:51:29.869Z,37.37
2022-08-17T11:54:21.589Z,37.26
2022-08-17T11:56:49.120Z,37.26
2022-08-17T11:59:37.005Z,38.66
2022-08-17T12:02:05.112Z,39.57
2022-08-17T12:04:35.155Z,39.53
2022-08-17T12:07:16.173Z,39.59
2022-08-17T12:09:45.284Z,38.59
2022-08-17T12:12:20.236Z,38.45
2022-08-17T12:17:41.525Z,38.27
2022-08-17T12:20:23.025Z,40.08
2022-08-17T12:23:04.200Z,38.92
2022-08-17T12:25:37.906Z,38.54
2022-08-17T12:28:19.852Z,38.22
2022-08-17T12:30:52.164Z,38.52
2022-08-17T12:33:25.467Z,38.46
2022-08-17T12:35:59.448Z,39.18
2022-08-17T12:38:33.037Z,39.01
2022-08-17T12:41:21.097Z,39.11
2022-08-17T12:43:55.913Z,38.49
2022-08-17T12:46:22.470Z,39.10
2022-08-17T12:48:59.169Z,39.30
2022-08-17T12:51:27.581Z,38.14
2022-08-17T12:53:55.058Z,38.16
2022-08-17T12:56:21.708Z,39.11
2022-08-17T12:58:56.747Z,39.29
2022-08-17T13:01:24.993Z,39.38
2022-08-17T13:03:53.812Z,38.29
2022-08-17T13:06:32.242Z,38.44
2022-08-17T13:09:09.048Z,39.82
2022-08-17T13:11:35.538Z,39.07
2022-08-17T13:14:09.428Z,38.05
2022-08-17T13:16:36.285Z,37.55
2022-08-17T13:19:07.756Z,38.42
2022-08-17T13:21:35.114Z,38.85
2022-08-17T13:24:04.741Z,38.83
2022-08-17T13:26:31.275Z,38.22
2022-08-17T13:28:58.379Z,37.50
2022-08-17T13:31:28.455Z,38.85
2022-08-17T13:34:14.428Z,39.40
2022-08-17T13:36:42.156Z,38.05
2022-08-17T13:39:18.773Z,38.71
2022-08-17T13:41:45.728Z,38.65
2022-08-17T13:44:31.116Z,37.94
2022-08-17T13:46:59.537Z,37.93
2022-08-17T13:49:41.937Z,38.81
2022-08-17T13:52:30.527Z,37.79
2022-08-17T13:54:59.470Z,38.34
2022-08-17T13:57:26.226Z,37.65
2022-08-17T14:00:05.764Z,37.41
2022-08-17T14:02:34.844Z,37.33
2022-08-17T14:05:02.056Z,37.64
2022-08-17T14:07:34.816Z,37.63
2022-08-17T14:10:04.619Z,37.14
2022-08-17T14:12:33.012Z,36.87
2022-08-17T14:14:59.543Z,36.64
2022-08-17T14:17:26.788Z,37.82
2022-08-17T14:19:53.312Z,38.32
2022-08-17T14:22:23.696Z,38.28
2022-08-17T14:24:51.316Z,36.61
2022-08-17T14:27:18.365Z,37.30
2022-08-17T14:29:44.946Z,37.15
2022-08-17T14:32:17.039Z,37.44
2022-08-17T14:34:44.920Z,36.34
2022-08-17T14:37:12.221Z,36.86
2022-08-17T14:39:39.094Z,36.12
2022-08-17T14:42:05.725Z,36.64
2022-08-17T14:44:32.506Z,36.73
2022-08-17T14:46:59.028Z,37.82
2022-08-17T14:49:25.992Z,37.00
2022-08-17T14:51:52.907Z,37.65
2022-08-17T14:54:33.389Z,37.36
2022-08-17T14:57:02.882Z,38.03
2022-08-17T14:59:49.222Z,38.07
2022-08-17T15:02:22.731Z,38.16
2022-08-17T15:05:01.784Z,36.79
2022-08-17T15:07:30.995Z,37.49
2022-08-17T15:09:58.774Z,37.42
2022-08-17T15:12:32.265Z,36.98
2022-08-17T15:15:01.031Z,36.61
2022-08-17T15:17:44.929Z,36.63
2022-08-17T15:20:20.679Z,37.07
2022-08-17T15:22:49.844Z,36.33
2022-08-17T15:25:17.761Z,35.60
2022-08-17T15:27:44.348Z,35.33
2022-08-17T15:30:11.722Z,35.35
2022-08-17T15:32:39.497Z,35.53
2022-08-17T15:35:07.122Z,35.71
2022-08-17T15:37:33.605Z,35.27
2022-08-17T15:40:01.146Z,35.35
2022-08-17T15:42:27.975Z,35.61
2022-08-17T15:44:55.217Z,35.42
2022-08-17T15:47:22.066Z,35.32
2022-08-17T15:49:48.892Z,34.46
2022-08-17T15:52:20.543Z,34.31
2022-08-17T15:54:56.506Z,34.17
2022-08-17T15:57:25.696Z,34.06
2022-08-17T15:59:55.260Z,34.19
2022-08-17T16:03:20.363Z,34.32
2022-08-17T16:05:21.970Z,34.32
2022-08-17T16:07:52.154Z,34.05
2022-08-17T16:10:19.494Z,33.97
2022-08-17T16:12:47.524Z,34.31
2022-08-17T16:15:14.589Z,34.53
2022-08-17T16:17:43.867Z,34.37
2022-08-17T16:20:20.029Z,34.54
2022-08-17T16:22:48.371Z,34.93
2022-08-17T16:25:18.823Z,34.59
2022-08-17T16:27:46.666Z,34.41
2022-08-17T16:30:17.600Z,34.60
2022-08-17T16:32:45.207Z,34.18
2022-08-17T16:35:14.333Z,34.29
2022-08-17T16:37:45.378Z,34.25
2022-08-17T16:40:12.773Z,34.30
2022-08-17T16:42:39.683Z,34.14
2022-08-17T16:45:09.851Z,34.13
2022-08-17T16:47:36.546Z,33.88
2022-08-17T16:50:04.469Z,33.91
2022-08-17T16:52:32.748Z,33.96
2022-08-17T16:55:01.346Z,34.11
2022-08-17T16:57:28.166Z,33.74
2022-08-17T16:59:54.776Z,33.54
2022-08-17T17:02:32.553Z,33.50
2022-08-17T17:05:17.676Z,33.14
2022-08-17T17:07:50.922Z,33.25
2022-08-17T17:10:20.667Z,33.55
2022-08-17T17:13:03.833Z,33.32
2022-08-17T17:15:54.260Z,33.17
2022-08-17T17:18:23.174Z,32.75
2022-08-17T17:20:54.989Z,32.60
2022-08-17T17:23:40.380Z,32.45
2022-08-17T17:26:28.389Z,32.40
2022-08-17T17:29:10.812Z,32.39
2022-08-17T17:31:41.154Z,32.29
2022-08-17T17:34:10.633Z,31.85
2022-08-17T17:36:50.248Z,31.73
2022-08-17T17:39:32.434Z,31.42
2022-08-17T17:42:02.697Z,31.38
2022-08-17T17:44:35.108Z,30.78
2022-08-17T17:47:02.634Z,30.66
2022-08-17T17:49:41.511Z,30.47
2022-08-17T17:52:26.187Z,30.18
2022-08-17T17:54:58.936Z,29.86
2022-08-17T17:57:25.645Z,29.65
2022-08-17T18:00:22.100Z,29.71
2022-08-17T18:02:51.695Z,29.52
2022-08-17T18:05:39.583Z,29.29
2022-08-17T18:08:21.423Z,29.38
2022-08-17T18:11:00.392Z,29.01
2022-08-17T18:13:50.623Z,28.77
2022-08-17T18:16:18.359Z,28.71
2022-08-17T18:18:47.334Z,28.65
2022-08-17T18:21:19.430Z,28.62
2022-08-17T18:23:53.762Z,28.43
2022-08-17T18:26:32.699Z,28.27
2022-08-17T18:29:00.334Z,28.07
2022-08-17T18:31:27.088Z,27.98
2022-08-17T18:33:55.350Z,27.92
2022-08-17T18:36:36.366Z,27.86
2022-08-17T18:39:15.240Z,27.93
2022-08-17T18:42:00.652Z,27.76
2022-08-17T18:44:29.146Z,27.55
2022-08-17T18:47:06.847Z,27.52
2022-08-17T18:49:33.902Z,27.10
2022-08-17T18:52:09.186Z,27.21
2022-08-17T18:54:38.718Z,27.18
2022-08-17T18:57:06.136Z,26.98
2022-08-17T18:59:43.565Z,26.33
2022-08-17T19:02:20.690Z,26.14
2022-08-17T19:04:59.592Z,26.38
2022-08-17T19:07:28.307Z,26.44
2022-08-17T19:09:58.184Z,26.60
2022-08-17T19:12:27.504Z,26.38
2022-08-17T19:14:55.935Z,26.23
2022-08-17T19:17:25.506Z,26.12
2022-08-17T19:20:09.049Z,26.00
2022-08-17T19:22:52.465Z,25.89
2022-08-17T19:25:22.921Z,26.15
2022-08-17T19:27:57.717Z,26.16
2022-08-17T19:30:25.103Z,25.97
2022-08-17T19:32:52.997Z,25.92
2022-08-17T19:35:22.072Z,25.88
2022-08-17T19:37:49.500Z,25.66
2022-08-17T19:40:51.810Z,25.67
2022-08-17T19:43:30.746Z,25.70
2022-08-17T19:46:08.980Z,25.71
2022-08-17T19:48:54.117Z,25.66
2022-08-17T19:51:30.125Z,25.61
2022-08-17T19:54:06.657Z,25.44
2022-08-17T19:56:54.433Z,25.36
2022-08-17T19:59:36.150Z,25.32
2022-08-17T20:02:18.971Z,25.23
2022-08-17T20:04:46.904Z,25.18
2022-08-17T20:07:19.062Z,25.27
2022-08-17T20:09:54.540Z,25.32
2022-08-17T20:12:23.985Z,25.05
2022-08-17T20:14:57.242Z,25.15
2022-08-17T20:17:28.199Z,25.06
2022-08-17T20:20:24.347Z,25.06
2022-08-17T20:22:59.107Z,25.08
2022-08-17T20:25:31.545Z,24.97
2022-08-17T20:28:03.828Z,25.01
2022-08-17T20:30:34.682Z,25.02
2022-08-17T20:33:02.261Z,24.79
2022-08-17T20:35:32.884Z,24.84
2022-08-17T20:38:10.937Z,24.78
2022-08-17T20:40:56.568Z,24.51
2022-08-17T20:43:35.561Z,24.50
2022-08-17T20:46:02.356Z,24.68
2022-08-17T20:48:38.371Z,24.64
2022-08-17T20:51:18.138Z,24.45
2022-08-17T20:53:47.664Z,24.24
2022-08-17T20:56:32.700Z,24.29
2022-08-17T20:59:00.752Z,24.33
2022-08-17T21:01:40.099Z,24.14
2022-08-17T21:04:08.730Z,23.98
2022-08-17T21:06:55.170Z,24.02
2022-08-17T21:09:28.055Z,24.00
2022-08-17T21:12:04.469Z,23.97
2022-08-17T21:14:31.380Z,23.83
2022-08-17T21:17:17.692Z,24.07
2022-08-17T21:20:14.300Z,24.07
2022-08-17T21:22:42.186Z,24.07
2022-08-17T21:25:27.533Z,23.80
2022-08-17T21:28:03.637Z,23.50
2022-08-17T21:30:30.130Z,23.57
2022-08-17T21:33:16.878Z,23.47
2022-08-17T21:35:51.993Z,23.59
2022-08-17T21:38:22.073Z,23.86
2022-08-17T21:40:50.724Z,23.85
2022-08-17T21:43:23.883Z,23.70
2022-08-17T21:45:55.415Z,23.59
2022-08-17T21:48:24.516Z,23.66
2022-08-17T21:51:03.741Z,23.77
2022-08-17T21:53:42.296Z,23.60
2022-08-17T21:56:10.609Z,23.52
2022-08-17T21:58:40.077Z,23.56
2022-08-17T22:01:11.819Z,23.51
2022-08-17T22:03:38.717Z,23.43
2022-08-17T22:06:27.604Z,23.52
2022-08-17T22:09:09.322Z,23.41
2022-08-17T22:11:53.942Z,23.51
2022-08-17T22:14:24.333Z,23.46
2022-08-17T22:17:05.855Z,23.37
2022-08-17T22:19:34.912Z,23.33
2022-08-17T22:22:02.628Z,23.18
2022-08-17T22:24:31.010Z,23.07
2022-08-17T22:27:00.176Z,23.12
2022-08-17T22:29:42.616Z,22.91
2022-08-17T22:32:09.595Z,22.90
2022-08-17T22:34:37.016Z,22.98
2022-08-17T22:37:20.365Z,22.90
2022-08-17T22:39:58.880Z,23.05
2022-08-17T22:42:25.678Z,22.76
2022-08-17T22:44:53.191Z,22.48
2022-08-17T22:47:32.066Z,22.52
2022-08-17T22:49:59.788Z,22.67
2022-08-17T22:52:32.200Z,22.60
2022-08-17T22:55:23.730Z,22.70
2022-08-17T22:58:09.023Z,22.83
2022-08-17T23:00:40.839Z,22.90
2022-08-17T23:03:15.796Z,22.92
2022-08-17T23:05:44.916Z,22.83
2022-08-17T23:08:12.785Z,22.92
2022-08-17T23:10:42.732Z,22.92
2022-08-17T23:13:11.742Z,22.94
2022-08-17T23:15:39.962Z,22.52
2022-08-17T23:18:07.291Z,22.68
2022-08-17T23:20:35.245Z,22.68
2022-08-17T23:23:03.553Z,22.77
2022-08-17T23:25:31.675Z,22.84
2022-08-17T23:27:59.103Z,23.08
2022-08-17T23:30:28.508Z,23.23
2022-08-17T23:32:56.520Z,23.45
2022-08-17T23:35:40.051Z,23.77
2022-08-17T23:38:11.618Z,23.62
2022-08-17T23:40:39.504Z,23.62
2022-08-17T23:43:17.372Z,23.45
2022-08-17T23:45:51.791Z,23.44
2022-08-17T23:48:28.455Z,23.41
2022-08-17T23:51:04.430Z,23.51
2022-08-17T23:53:34.033Z,23.49
2022-08-17T23:56:07.606Z,23.14
2022-08-17T23:58:38.503Z,23.04
